createdAt,value
2018-05-13T00:01:22.789Z,22.20
2018-05-13T00:03:50.895Z,22.20
2018-05-13T00:06:19.010Z,22.10
2018-05-13T00:08:47.120Z,22.10
2018-05-13T00:11:15.249Z,22.10
2018-05-13T00:13:43.354Z,22.10
2018-05-13T00:16:12.227Z,22.00
2018-05-13T00:18:40.357Z,22.00
2018-05-13T00:21:08.465Z,22.00
2018-05-13T00:23:38.097Z,21.90
2018-05-13T00:26:06.195Z,21.90
2018-05-13T00:28:35.112Z,21.90
2018-05-13T00:31:03.240Z,21.90
2018-05-13T00:33:31.385Z,21.90
2018-05-13T00:35:59.493Z,21.80
2018-05-13T00:38:27.617Z,21.80
2018-05-13T00:40:55.734Z,21.70
2018-05-13T00:43:23.875Z,21.70
2018-05-13T00:45:51.989Z,21.60
2018-05-13T00:48:20.094Z,21.60
2018-05-13T00:50:48.999Z,21.60
2018-05-13T00:53:17.880Z,21.60
2018-05-13T00:55:45.995Z,21.60
2018-05-13T00:58:14.117Z,21.60
2018-05-13T01:00:42.253Z,21.60
2018-05-13T01:03:10.358Z,21.60
2018-05-13T01:05:38.472Z,21.50
2018-05-13T01:08:07.360Z,21.50
2018-05-13T01:10:35.472Z,21.50
2018-05-13T01:13:03.604Z,21.50
2018-05-13T01:15:31.719Z,21.50
2018-05-13T01:17:59.907Z,21.50
2018-05-13T01:20:28.021Z,21.40
2018-05-13T01:22:56.134Z,21.40
2018-05-13T01:25:25.021Z,21.40
2018-05-13T01:27:53.902Z,21.30
2018-05-13T01:30:22.034Z,21.30
2018-05-13T01:32:50.140Z,21.30
2018-05-13T01:35:18.256Z,21.20
2018-05-13T01:37:47.137Z,21.20
2018-05-13T01:40:15.240Z,21.20
2018-05-13T01:42:43.370Z,21.20
2018-05-13T01:45:11.488Z,21.20
2018-05-13T01:47:40.361Z,21.10
2018-05-13T01:50:08.481Z,21.10
2018-05-13T01:52:36.585Z,21.10
2018-05-13T01:55:04.731Z,21.10
2018-05-13T01:57:32.914Z,21.00
2018-05-13T02:00:01.021Z,21.00
2018-05-13T02:02:29.158Z,21.00
2018-05-13T02:04:57.276Z,21.00
2018-05-13T02:07:25.469Z,21.00
2018-05-13T02:09:53.574Z,21.00
2018-05-13T02:12:22.446Z,20.90
2018-05-13T02:14:50.884Z,20.90
2018-05-13T02:17:19.005Z,20.90
2018-05-13T02:19:47.145Z,20.90
2018-05-13T02:22:15.256Z,20.90
2018-05-13T02:24:43.363Z,20.90
2018-05-13T02:27:12.260Z,20.90
2018-05-13T02:29:41.133Z,20.90
2018-05-13T02:32:09.267Z,20.80
2018-05-13T02:34:37.389Z,20.80
2018-05-13T02:37:05.505Z,20.80
2018-05-13T02:39:33.623Z,20.80
2018-05-13T02:42:01.727Z,20.80
2018-05-13T02:44:30.615Z,20.70
2018-05-13T02:46:58.730Z,20.70
2018-05-13T02:49:26.849Z,20.70
2018-05-13T02:51:54.977Z,20.70
2018-05-13T02:54:23.098Z,20.60
2018-05-13T02:56:51.226Z,20.60
2018-05-13T02:59:20.138Z,20.60
2018-05-13T03:01:48.279Z,20.60
2018-05-13T03:04:16.400Z,20.50
2018-05-13T03:06:44.542Z,20.50
2018-05-13T03:09:13.418Z,20.50
2018-05-13T03:11:41.547Z,20.50
2018-05-13T03:14:09.664Z,20.40
2018-05-13T03:16:37.876Z,20.40
2018-05-13T03:19:06.790Z,20.40
2018-05-13T03:21:34.922Z,20.40
2018-05-13T03:24:03.042Z,20.40
2018-05-13T03:26:31.160Z,20.40
2018-05-13T03:28:59.271Z,20.40
2018-05-13T03:31:28.167Z,20.40
2018-05-13T03:33:57.027Z,20.40
2018-05-13T03:36:25.148Z,20.30
2018-05-13T03:38:54.034Z,20.30
2018-05-13T03:41:22.911Z,20.30
2018-05-13T03:43:51.025Z,20.20
2018-05-13T03:46:19.134Z,20.20
2018-05-13T03:48:47.266Z,20.20
2018-05-13T03:51:16.139Z,20.20
2018-05-13T03:53:44.282Z,20.20
2018-05-13T03:56:12.394Z,20.20
2018-05-13T03:58:40.498Z,20.20
2018-05-13T04:01:09.400Z,20.20
2018-05-13T04:03:37.519Z,20.20
2018-05-13T04:06:05.650Z,20.30
2018-05-13T04:08:53.199Z,20.30
2018-05-13T04:11:39.193Z,20.20
2018-05-13T04:14:25.210Z,20.20
2018-05-13T04:16:53.365Z,20.20
2018-05-13T04:19:21.472Z,20.20
2018-05-13T04:21:49.688Z,20.20
2018-05-13T04:24:17.827Z,20.30
2018-05-13T04:26:45.959Z,20.20
2018-05-13T04:29:14.070Z,20.20
2018-05-13T04:31:42.217Z,20.20
2018-05-13T04:34:10.327Z,20.20
2018-05-13T04:36:38.554Z,20.20
2018-05-13T04:39:06.674Z,20.20
2018-05-13T04:41:34.810Z,20.10
2018-05-13T04:44:02.910Z,20.10
2018-05-13T04:46:31.033Z,20.10
2018-05-13T04:48:59.162Z,20.10
2018-05-13T04:51:27.268Z,20.20
2018-05-13T04:53:55.409Z,20.20
2018-05-13T04:56:23.577Z,20.30
2018-05-13T04:58:51.693Z,20.30
2018-05-13T05:01:19.820Z,20.40
2018-05-13T05:03:47.952Z,20.40
2018-05-13T05:06:16.079Z,20.40
2018-05-13T05:08:44.211Z,20.50
2018-05-13T05:11:12.346Z,20.50
2018-05-13T05:13:40.449Z,20.50
2018-05-13T05:16:08.570Z,20.50
2018-05-13T05:18:37.487Z,20.60
2018-05-13T05:21:05.603Z,20.60
2018-05-13T05:23:33.730Z,20.60
2018-05-13T05:26:01.844Z,20.60
2018-05-13T05:28:29.968Z,20.70
2018-05-13T05:30:58.849Z,20.70
2018-05-13T05:33:27.756Z,20.80
2018-05-13T05:35:55.869Z,20.90
2018-05-13T05:38:23.978Z,20.90
2018-05-13T05:40:52.106Z,21.00
2018-05-13T05:43:20.981Z,21.10
2018-05-13T05:45:49.089Z,21.20
2018-05-13T05:48:17.235Z,21.30
2018-05-13T05:50:45.345Z,21.40
2018-05-13T05:53:13.473Z,21.60
2018-05-13T05:55:41.580Z,21.70
2018-05-13T05:58:10.480Z,21.90
2018-05-13T06:00:38.589Z,22.00
2018-05-13T06:03:06.717Z,22.20
2018-05-13T06:05:34.845Z,22.30
2018-05-13T06:08:02.968Z,22.50
2018-05-13T06:10:31.857Z,22.70
2018-05-13T06:12:59.978Z,22.90
2018-05-13T06:15:28.089Z,23.10
2018-05-13T06:17:56.212Z,23.20
2018-05-13T06:20:25.080Z,23.40
2018-05-13T06:22:53.986Z,23.60
2018-05-13T06:25:22.101Z,23.80
2018-05-13T06:27:50.230Z,24.00
2018-05-13T06:30:18.355Z,24.10
2018-05-13T06:32:46.463Z,24.30
2018-05-13T06:35:14.588Z,24.50
2018-05-13T06:37:43.475Z,24.60
2018-05-13T06:40:12.364Z,24.80
2018-05-13T06:42:40.471Z,24.90
2018-05-13T06:45:08.622Z,25.00
2018-05-13T06:47:37.508Z,25.20
2018-05-13T06:50:05.646Z,25.30
2018-05-13T06:52:33.791Z,25.50
2018-05-13T06:55:01.949Z,25.60
2018-05-13T06:57:30.872Z,25.70
2018-05-13T06:59:59.051Z,25.80
2018-05-13T07:02:27.154Z,25.90
2018-05-13T07:04:55.283Z,26.10
2018-05-13T07:07:23.419Z,26.20
2018-05-13T07:09:51.665Z,26.30
2018-05-13T07:12:19.767Z,26.40
2018-05-13T07:14:47.917Z,26.50
2018-05-13T07:17:16.045Z,26.60
2018-05-13T07:19:44.178Z,26.70
2018-05-13T07:22:12.287Z,26.70
2018-05-13T07:24:40.413Z,26.80
2018-05-13T07:27:09.300Z,26.80
2018-05-13T07:29:38.177Z,26.90
2018-05-13T07:32:06.294Z,26.90
2018-05-13T07:34:34.402Z,27.00
2018-05-13T07:37:02.506Z,27.00
2018-05-13T07:39:30.637Z,27.10
2018-05-13T07:41:58.750Z,27.10
2018-05-13T07:44:26.870Z,27.20
2018-05-13T07:46:54.988Z,27.20
2018-05-13T07:49:23.116Z,27.30
2018-05-13T07:51:52.002Z,27.40
2018-05-13T07:54:20.876Z,27.50
2018-05-13T07:56:48.981Z,27.50
2018-05-13T07:59:17.876Z,27.60
2018-05-13T08:01:46.774Z,27.60
2018-05-13T08:04:15.650Z,27.70
2018-05-13T08:06:43.784Z,27.70
2018-05-13T08:09:12.686Z,27.80
2018-05-13T08:11:40.822Z,27.80
2018-05-13T08:14:09.877Z,27.90
2018-05-13T08:16:38.174Z,28.00
2018-05-13T08:19:06.279Z,28.10
2018-05-13T08:21:34.400Z,28.10
2018-05-13T08:24:02.526Z,28.20
2018-05-13T08:26:31.397Z,28.20
2018-05-13T08:28:59.537Z,28.30
2018-05-13T08:31:27.695Z,28.30
2018-05-13T08:33:55.800Z,28.30
2018-05-13T08:36:23.936Z,28.40
2018-05-13T08:38:52.813Z,28.50
2018-05-13T08:41:21.698Z,28.50
2018-05-13T08:43:49.800Z,28.50
2018-05-13T08:46:18.682Z,28.60
2018-05-13T08:48:47.565Z,28.70
2018-05-13T08:51:17.199Z,28.70
2018-05-13T08:53:46.060Z,28.80
2018-05-13T08:56:14.184Z,28.90
2018-05-13T08:58:42.310Z,28.90
2018-05-13T09:01:10.460Z,29.00
2018-05-13T09:03:38.560Z,29.00
2018-05-13T09:06:06.663Z,29.10
2018-05-13T09:08:35.641Z,29.00
2018-05-13T09:11:04.452Z,29.00
2018-05-13T09:13:33.343Z,28.90
2018-05-13T09:16:02.219Z,28.90
2018-05-13T09:18:30.343Z,28.80
2018-05-13T09:20:58.550Z,28.70
2018-05-13T09:23:27.410Z,28.70
2018-05-13T09:25:56.298Z,28.60
2018-05-13T09:28:27.469Z,28.50
2018-05-13T09:30:56.417Z,28.50
2018-05-13T09:33:24.562Z,28.50
2018-05-13T09:35:52.689Z,28.40
2018-05-13T09:38:21.552Z,28.40
2018-05-13T09:40:49.673Z,28.30
2018-05-13T09:43:18.539Z,28.30
2018-05-13T09:45:46.706Z,28.30
2018-05-13T09:48:14.777Z,28.30
2018-05-13T09:50:44.032Z,28.20
2018-05-13T09:53:13.042Z,28.10
2018-05-13T09:55:41.193Z,28.10
2018-05-13T09:58:10.067Z,28.10
2018-05-13T10:00:38.166Z,28.00
2018-05-13T10:03:16.442Z,27.90
2018-05-13T10:05:45.169Z,27.90
2018-05-13T10:08:13.336Z,27.90
2018-05-13T10:10:42.272Z,27.90
2018-05-13T10:13:10.413Z,27.90
2018-05-13T10:15:39.307Z,27.90
2018-05-13T10:18:08.219Z,27.90
2018-05-13T10:20:36.345Z,27.80
2018-05-13T10:23:04.538Z,27.80
2018-05-13T10:25:32.667Z,27.80
2018-05-13T10:28:00.803Z,27.80
2018-05-13T10:30:28.933Z,27.80
2018-05-13T10:32:57.041Z,27.80
2018-05-13T10:35:25.161Z,27.80
2018-05-13T10:37:54.047Z,27.80
2018-05-13T10:40:22.946Z,27.80
2018-05-13T10:42:51.815Z,27.80
2018-05-13T10:45:20.710Z,27.80
2018-05-13T10:47:48.837Z,27.80
2018-05-13T10:50:16.951Z,27.80
2018-05-13T10:52:45.078Z,27.80
2018-05-13T10:55:13.199Z,27.80
2018-05-13T10:57:41.362Z,27.80
2018-05-13T11:00:09.482Z,27.70
2018-05-13T11:02:37.585Z,27.70
2018-05-13T11:05:05.717Z,27.80
2018-05-13T11:07:33.822Z,27.80
2018-05-13T11:10:02.749Z,27.80
2018-05-13T11:12:31.594Z,27.80
2018-05-13T11:14:59.707Z,27.70
2018-05-13T11:17:27.818Z,27.70
2018-05-13T11:19:55.945Z,27.70
2018-05-13T11:22:24.819Z,27.70
2018-05-13T11:24:52.933Z,27.70
2018-05-13T11:27:21.062Z,27.70
2018-05-13T11:29:49.192Z,27.70
2018-05-13T11:32:17.309Z,27.70
2018-05-13T11:34:45.442Z,27.70
2018-05-13T11:37:13.567Z,27.70
2018-05-13T11:39:41.733Z,27.70
2018-05-13T11:42:09.895Z,27.70
2018-05-13T11:44:38.032Z,27.70
2018-05-13T11:47:06.906Z,27.70
2018-05-13T11:49:35.029Z,27.70
2018-05-13T11:52:03.176Z,27.70
2018-05-13T11:54:32.141Z,27.70
2018-05-13T11:57:00.256Z,27.70
2018-05-13T11:59:29.138Z,27.70
2018-05-13T12:01:57.243Z,27.70
2018-05-13T12:04:26.152Z,27.60
2018-05-13T12:06:54.260Z,27.70
2018-05-13T12:09:22.378Z,27.70
2018-05-13T12:11:51.316Z,27.60
2018-05-13T12:14:19.428Z,27.60
2018-05-13T12:16:47.563Z,27.60
2018-05-13T12:19:15.692Z,27.60
2018-05-13T12:21:43.837Z,27.70
2018-05-13T12:24:11.928Z,27.70
2018-05-13T12:26:40.062Z,27.70
2018-05-13T12:29:08.168Z,27.70
2018-05-13T12:31:36.298Z,27.70
2018-05-13T12:34:05.178Z,27.70
2018-05-13T12:36:33.292Z,27.70
2018-05-13T12:39:01.404Z,27.70
2018-05-13T12:41:29.517Z,27.70
2018-05-13T12:43:58.492Z,27.70
2018-05-13T12:46:26.606Z,27.70
2018-05-13T12:48:55.505Z,27.70
2018-05-13T12:51:23.612Z,27.70
2018-05-13T12:53:51.721Z,27.70
2018-05-13T12:56:21.374Z,27.70
2018-05-13T12:58:50.233Z,27.70
2018-05-13T13:01:18.363Z,27.70
2018-05-13T13:03:46.530Z,27.70
2018-05-13T13:06:14.611Z,27.70
2018-05-13T13:08:42.722Z,27.60
2018-05-13T13:11:10.829Z,27.70
2018-05-13T13:13:39.711Z,27.70
2018-05-13T13:16:07.842Z,27.70
2018-05-13T13:18:35.951Z,27.70
2018-05-13T13:21:04.075Z,27.70
2018-05-13T13:23:32.186Z,27.70
2018-05-13T13:26:00.366Z,27.70
2018-05-13T13:28:29.191Z,27.70
2018-05-13T13:30:57.323Z,27.70
2018-05-13T13:33:25.424Z,27.70
2018-05-13T13:35:53.541Z,27.70
2018-05-13T13:38:22.416Z,27.70
2018-05-13T13:40:50.530Z,27.70
2018-05-13T13:43:18.638Z,27.70
2018-05-13T13:45:46.755Z,27.70
2018-05-13T13:48:14.864Z,27.70
2018-05-13T13:50:42.977Z,27.70
2018-05-13T13:53:11.082Z,27.70
2018-05-13T13:55:39.189Z,27.70
2018-05-13T13:58:07.307Z,27.70
2018-05-13T14:00:35.437Z,27.70
2018-05-13T14:03:04.319Z,27.70
2018-05-13T14:05:33.205Z,27.70
2018-05-13T14:08:01.311Z,27.70
2018-05-13T14:10:29.433Z,27.60
2018-05-13T14:12:57.569Z,27.70
2018-05-13T14:15:25.693Z,27.70
2018-05-13T14:17:53.808Z,27.70
2018-05-13T14:20:22.751Z,27.70
2018-05-13T14:22:51.602Z,27.60
2018-05-13T14:25:20.478Z,27.60
2018-05-13T14:27:48.615Z,27.60
2018-05-13T14:30:16.729Z,27.60
2018-05-13T14:32:44.848Z,27.60
2018-05-13T14:35:12.967Z,27.60
2018-05-13T14:37:41.084Z,27.60
2018-05-13T14:40:09.971Z,27.60
2018-05-13T14:42:38.884Z,27.60
2018-05-13T14:45:07.035Z,27.60
2018-05-13T14:47:35.147Z,27.60
2018-05-13T14:50:03.246Z,27.60
2018-05-13T14:52:31.370Z,27.60
2018-05-13T14:55:00.247Z,27.60
2018-05-13T14:57:28.354Z,27.60
2018-05-13T14:59:57.232Z,27.60
2018-05-13T15:02:25.350Z,27.60
2018-05-13T15:04:53.504Z,27.60
2018-05-13T15:07:31.576Z,27.60
2018-05-13T15:09:59.687Z,27.60
2018-05-13T15:12:28.569Z,27.60
2018-05-13T15:14:57.449Z,27.60
2018-05-13T15:17:25.573Z,27.60
2018-05-13T15:19:53.685Z,27.60
2018-05-13T15:22:27.413Z,27.60
2018-05-13T15:24:55.492Z,27.50
2018-05-13T15:27:24.406Z,27.60
2018-05-13T15:29:53.316Z,27.50
2018-05-13T15:32:21.458Z,27.50
2018-05-13T15:34:50.353Z,27.50
2018-05-13T15:37:18.513Z,27.50
2018-05-13T15:39:46.632Z,27.40
2018-05-13T15:42:15.519Z,27.40
2018-05-13T15:44:44.405Z,27.40
2018-05-13T15:47:12.532Z,27.40
2018-05-13T15:49:40.646Z,27.40
2018-05-13T15:52:08.786Z,27.40
2018-05-13T15:54:36.897Z,27.40
2018-05-13T15:57:05.002Z,27.40
2018-05-13T15:59:33.894Z,27.40
2018-05-13T16:02:02.767Z,27.30
2018-05-13T16:04:30.882Z,27.30
2018-05-13T16:06:59.003Z,27.30
2018-05-13T16:09:27.141Z,27.30
2018-05-13T16:11:55.284Z,27.30
2018-05-13T16:14:23.404Z,27.30
2018-05-13T16:16:51.549Z,27.30
2018-05-13T16:19:20.433Z,27.20
2018-05-13T16:21:48.539Z,27.20
2018-05-13T16:24:16.661Z,27.20
2018-05-13T16:26:44.795Z,27.20
2018-05-13T16:29:12.921Z,27.20
2018-05-13T16:31:41.037Z,27.20
2018-05-13T16:34:09.921Z,27.10
2018-05-13T16:36:38.806Z,27.10
2018-05-13T16:39:06.947Z,27.10
2018-05-13T16:41:35.055Z,27.10
2018-05-13T16:44:03.211Z,27.10
2018-05-13T16:46:31.325Z,27.10
2018-05-13T16:49:00.196Z,27.10
2018-05-13T16:51:28.308Z,27.10
2018-05-13T16:53:57.185Z,27.10
2018-05-13T16:56:26.090Z,27.10
2018-05-13T16:58:54.980Z,27.10
2018-05-13T17:01:23.093Z,27.00
2018-05-13T17:03:51.229Z,27.10
2018-05-13T17:06:19.338Z,27.00
2018-05-13T17:08:47.472Z,27.00
2018-05-13T17:11:16.039Z,27.00
2018-05-13T17:13:44.923Z,27.00
2018-05-13T17:16:13.070Z,27.00
2018-05-13T17:18:41.205Z,27.00
2018-05-13T17:21:09.343Z,27.00
2018-05-13T17:23:38.749Z,27.00
2018-05-13T17:26:06.823Z,27.00
2018-05-13T17:28:35.005Z,26.90
2018-05-13T17:31:03.158Z,26.90
2018-05-13T17:33:32.030Z,26.80
2018-05-13T17:36:00.137Z,26.80
2018-05-13T17:38:28.246Z,26.80
2018-05-13T17:40:56.377Z,26.80
2018-05-13T17:43:25.256Z,26.80
2018-05-13T17:45:53.372Z,26.70
2018-05-13T17:48:21.523Z,26.70
2018-05-13T17:50:50.446Z,26.70
2018-05-13T17:53:18.558Z,26.60
2018-05-13T17:55:46.681Z,26.60
2018-05-13T17:58:15.594Z,26.60
2018-05-13T18:00:43.739Z,26.50
2018-05-13T18:03:12.733Z,26.50
2018-05-13T18:05:41.505Z,26.50
2018-05-13T18:08:09.653Z,26.50
2018-05-13T18:10:37.766Z,26.40
2018-05-13T18:13:05.978Z,26.40
2018-05-13T18:15:34.033Z,26.30
2018-05-13T18:18:02.157Z,26.30
2018-05-13T18:20:30.293Z,26.30
2018-05-13T18:22:58.389Z,26.30
2018-05-13T18:25:27.253Z,26.30
2018-05-13T18:27:55.375Z,26.30
2018-05-13T18:30:23.479Z,26.30
2018-05-13T18:32:51.725Z,26.20
2018-05-13T18:35:19.852Z,26.20
2018-05-13T18:37:47.970Z,26.20
2018-05-13T18:40:16.874Z,26.10
2018-05-13T18:42:44.993Z,26.10
2018-05-13T18:45:13.133Z,26.10
2018-05-13T18:47:41.286Z,26.10
2018-05-13T18:50:10.261Z,26.00
2018-05-13T18:52:38.324Z,26.00
2018-05-13T18:55:06.441Z,26.00
2018-05-13T18:57:35.313Z,25.90
2018-05-13T19:00:03.455Z,25.90
2018-05-13T19:02:31.556Z,25.90
2018-05-13T19:04:59.678Z,25.90
2018-05-13T19:07:27.790Z,25.90
2018-05-13T19:09:55.920Z,25.90
2018-05-13T19:12:24.844Z,25.80
2018-05-13T19:14:53.704Z,25.80
2018-05-13T19:17:22.593Z,25.80
2018-05-13T19:19:50.764Z,25.80
2018-05-13T19:22:18.875Z,25.70
2018-05-13T19:24:47.000Z,25.70
2018-05-13T19:27:15.136Z,25.70
2018-05-13T19:29:43.243Z,25.70
2018-05-13T19:32:11.471Z,25.60
2018-05-13T19:34:40.354Z,25.60
2018-05-13T19:37:08.483Z,25.60
2018-05-13T19:39:36.627Z,25.60
2018-05-13T19:42:05.535Z,25.50
2018-05-13T19:44:33.665Z,25.50
2018-05-13T19:47:01.782Z,25.50
2018-05-13T19:49:30.677Z,25.50
2018-05-13T19:51:59.583Z,25.50
2018-05-13T19:54:27.694Z,25.40
2018-05-13T19:56:55.814Z,25.40
2018-05-13T19:59:24.693Z,25.40
2018-05-13T20:01:52.801Z,25.30
2018-05-13T20:04:20.921Z,25.30
2018-05-13T20:06:49.040Z,25.30
2018-05-13T20:09:17.912Z,25.20
2018-05-13T20:11:46.068Z,25.20
2018-05-13T20:14:14.193Z,25.20
2018-05-13T20:16:43.067Z,25.20
2018-05-13T20:19:11.196Z,25.10
2018-05-13T20:21:39.326Z,25.10
2018-05-13T20:24:08.240Z,25.10
2018-05-13T20:26:37.130Z,25.10
2018-05-13T20:29:06.017Z,25.10
2018-05-13T20:31:34.154Z,25.00
2018-05-13T20:34:02.275Z,25.00
2018-05-13T20:36:31.165Z,25.00
2018-05-13T20:38:59.295Z,24.90
2018-05-13T20:41:27.403Z,24.90
2018-05-13T20:43:57.051Z,24.90
2018-05-13T20:46:25.925Z,24.80
2018-05-13T20:48:54.923Z,24.80
2018-05-13T20:51:23.078Z,24.80
2018-05-13T20:53:51.889Z,24.80
2018-05-13T20:56:20.834Z,24.70
2018-05-13T20:58:48.957Z,24.70
2018-05-13T21:01:17.084Z,24.70
2018-05-13T21:03:45.190Z,24.70
2018-05-13T21:06:13.302Z,24.60
2018-05-13T21:08:42.206Z,24.60
2018-05-13T21:11:11.124Z,24.60
2018-05-13T21:13:39.224Z,24.60
2018-05-13T21:16:07.382Z,24.50
2018-05-13T21:18:36.235Z,24.50
2018-05-13T21:21:05.141Z,24.50
2018-05-13T21:23:34.022Z,24.50
2018-05-13T21:26:02.897Z,24.40
2018-05-13T21:28:31.042Z,24.40
2018-05-13T21:30:59.157Z,24.30
2018-05-13T21:33:27.278Z,24.30
2018-05-13T21:35:55.412Z,24.30
2018-05-13T21:38:23.525Z,24.30
2018-05-13T21:40:52.421Z,24.20
2018-05-13T21:43:21.297Z,24.20
2018-05-13T21:45:49.398Z,24.20
2018-05-13T21:48:17.527Z,24.20
2018-05-13T21:50:45.642Z,24.10
2018-05-13T21:53:14.516Z,24.10
2018-05-13T21:55:44.282Z,24.10
2018-05-13T21:58:12.403Z,24.00
2018-05-13T22:00:40.550Z,24.00
2018-05-13T22:03:08.661Z,24.00
2018-05-13T22:05:36.760Z,24.00
2018-05-13T22:08:05.671Z,23.90
2018-05-13T22:10:33.783Z,23.90
2018-05-13T22:13:01.895Z,23.90
2018-05-13T22:15:30.042Z,23.80
2018-05-13T22:17:58.158Z,23.80
2018-05-13T22:20:27.040Z,23.80
2018-05-13T22:22:55.218Z,23.80
2018-05-13T22:25:23.439Z,23.80
2018-05-13T22:27:51.581Z,23.80
2018-05-13T22:30:20.479Z,23.80
2018-05-13T22:32:48.599Z,23.70
2018-05-13T22:35:16.732Z,23.70
2018-05-13T22:37:44.854Z,23.70
2018-05-13T22:40:12.955Z,23.70
2018-05-13T22:42:41.075Z,23.70
2018-05-13T22:45:09.944Z,23.70
2018-05-13T22:47:38.078Z,23.60
2018-05-13T22:50:06.184Z,23.60
2018-05-13T22:52:34.293Z,23.60
2018-05-13T22:55:03.179Z,23.60
2018-05-13T22:57:31.293Z,23.50
2018-05-13T22:59:59.397Z,23.50
2018-05-13T23:02:27.522Z,23.50
2018-05-13T23:04:56.460Z,23.50
2018-05-13T23:07:24.598Z,23.50
2018-05-13T23:09:53.479Z,23.50
2018-05-13T23:12:21.587Z,23.40
2018-05-13T23:14:49.710Z,23.40
2018-05-13T23:17:17.827Z,23.40
2018-05-13T23:19:46.749Z,23.40
2018-05-13T23:22:32.909Z,23.40
2018-05-13T23:25:01.784Z,23.30
2018-05-13T23:27:29.928Z,23.30
2018-05-13T23:29:58.042Z,23.30
2018-05-13T23:32:26.141Z,23.30
2018-05-13T23:34:55.026Z,23.20
2018-05-13T23:37:23.965Z,23.20
2018-05-13T23:39:52.811Z,23.20
2018-05-13T23:42:20.940Z,23.20
2018-05-13T23:44:49.057Z,23.20
2018-05-13T23:47:17.162Z,23.20
2018-05-13T23:49:46.053Z,23.10
2018-05-13T23:52:14.946Z,23.10
2018-05-13T23:54:43.822Z,23.10
2018-05-13T23:57:11.965Z,23.10
2018-05-13T23:59:40.069Z,23.10
